sensor_id;sensor_type;location;lat;lon;timestamp;temperature;humidity
67077;DHT22;53991;46.364;17.008;2022-08-03T00:00:22;16.30;99.90
67077;DHT22;53991;46.364;17.008;2022-08-03T00:03:24;16.30;99.90
67077;DHT22;53991;46.364;17.008;2022-08-03T00:06:26;16.30;99.90
67077;DHT22;53991;46.364;17.008;2022-08-03T00:09:28;16.20;99.90
67077;DHT22;53991;46.364;17.008;2022-08-03T00:12:36;16.20;99.90
67077;DHT22;53991;46.364;17.008;2022-08-03T00:15:42;16.10;99.90
67077;DHT22;53991;46.364;17.008;2022-08-03T00:18:44;16.10;99.90
67077;DHT22;53991;46.364;17.008;2022-08-03T00:21:46;16.00;99.90
67077;DHT22;53991;46.364;17.008;2022-08-03T00:24:48;16.00;99.90
67077;DHT22;53991;46.364;17.008;2022-08-03T00:27:49;16.00;99.90
67077;DHT22;53991;46.364;17.008;2022-08-03T00:30:51;15.90;99.90
67077;DHT22;53991;46.364;17.008;2022-08-03T00:33:53;15.90;99.90
67077;DHT22;53991;46.364;17.008;2022-08-03T00:37:00;15.90;99.90
67077;DHT22;53991;46.364;17.008;2022-08-03T00:40:03;15.90;99.90
67077;DHT22;53991;46.364;17.008;2022-08-03T00:43:07;15.90;99.90
67077;DHT22;53991;46.364;17.008;2022-08-03T00:46:09;15.80;99.90
67077;DHT22;53991;46.364;17.008;2022-08-03T00:49:11;15.80;99.90
67077;DHT22;53991;46.364;17.008;2022-08-03T00:52:14;15.80;99.90
67077;DHT22;53991;46.364;17.008;2022-08-03T00:55:16;15.70;99.90
67077;DHT22;53991;46.364;17.008;2022-08-03T00:58:18;15.70;99.90
67077;DHT22;53991;46.364;17.008;2022-08-03T01:01:20;15.80;99.90
67077;DHT22;53991;46.364;17.008;2022-08-03T01:04:22;15.90;99.90
67077;DHT22;53991;46.364;17.008;2022-08-03T01:11:09;16.00;99.90
67077;DHT22;53991;46.364;17.008;2022-08-03T01:14:17;16.10;99.90
67077;DHT22;53991;46.364;17.008;2022-08-03T01:20:51;16.20;99.90
67077;DHT22;53991;46.364;17.008;2022-08-03T01:27:28;16.10;99.90
67077;DHT22;53991;46.364;17.008;2022-08-03T01:30:34;16.10;99.90
67077;DHT22;53991;46.364;17.008;2022-08-03T01:33:42;16.10;99.90
67077;DHT22;53991;46.364;17.008;2022-08-03T01:36:51;16.10;99.90
67077;DHT22;53991;46.364;17.008;2022-08-03T01:39:56;16.00;99.90
67077;DHT22;53991;46.364;17.008;2022-08-03T01:43:01;16.00;99.90
67077;DHT22;53991;46.364;17.008;2022-08-03T01:46:05;15.90;99.90
67077;DHT22;53991;46.364;17.008;2022-08-03T01:49:10;15.80;99.90
67077;DHT22;53991;46.364;17.008;2022-08-03T01:52:17;15.80;99.90
67077;DHT22;53991;46.364;17.008;2022-08-03T01:55:22;15.80;99.90
67077;DHT22;53991;46.364;17.008;2022-08-03T01:58:28;15.80;99.90
67077;DHT22;53991;46.364;17.008;2022-08-03T02:01:35;15.70;99.90
67077;DHT22;53991;46.364;17.008;2022-08-03T02:05:00;15.70;99.90
67077;DHT22;53991;46.364;17.008;2022-08-03T02:08:05;15.70;99.90
67077;DHT22;53991;46.364;17.008;2022-08-03T02:11:10;15.70;99.90
67077;DHT22;53991;46.364;17.008;2022-08-03T02:14:14;15.60;99.90
67077;DHT22;53991;46.364;17.008;2022-08-03T02:17:18;15.70;99.90
67077;DHT22;53991;46.364;17.008;2022-08-03T02:20:42;15.70;99.90
67077;DHT22;53991;46.364;17.008;2022-08-03T02:23:45;15.70;99.90
67077;DHT22;53991;46.364;17.008;2022-08-03T02:26:50;15.70;99.90
67077;DHT22;53991;46.364;17.008;2022-08-03T02:29:57;15.60;99.90
67077;DHT22;53991;46.364;17.008;2022-08-03T02:33:02;15.50;99.90
67077;DHT22;53991;46.364;17.008;2022-08-03T02:36:05;15.30;99.90
67077;DHT22;53991;46.364;17.008;2022-08-03T02:39:10;15.30;99.90
67077;DHT22;53991;46.364;17.008;2022-08-03T02:42:15;15.30;99.90
67077;DHT22;53991;46.364;17.008;2022-08-03T02:45:23;15.40;99.90
67077;DHT22;53991;46.364;17.008;2022-08-03T02:48:29;15.50;99.90
67077;DHT22;53991;46.364;17.008;2022-08-03T02:51:35;15.60;99.90
67077;DHT22;53991;46.364;17.008;2022-08-03T02:54:39;15.60;99.90
67077;DHT22;53991;46.364;17.008;2022-08-03T02:57:43;15.60;99.90
67077;DHT22;53991;46.364;17.008;2022-08-03T03:00:48;15.50;99.90
67077;DHT22;53991;46.364;17.008;2022-08-03T03:03:54;15.50;99.90
67077;DHT22;53991;46.364;17.008;2022-08-03T03:06:58;15.50;99.90
67077;DHT22;53991;46.364;17.008;2022-08-03T03:10:04;15.40;99.90
67077;DHT22;53991;46.364;17.008;2022-08-03T03:13:06;15.30;99.90
67077;DHT22;53991;46.364;17.008;2022-08-03T03:16:12;15.20;99.90
67077;DHT22;53991;46.364;17.008;2022-08-03T03:19:15;15.10;99.90
67077;DHT22;53991;46.364;17.008;2022-08-03T03:22:18;15.10;99.90
67077;DHT22;53991;46.364;17.008;2022-08-03T03:25:21;15.10;99.90
67077;DHT22;53991;46.364;17.008;2022-08-03T03:28:23;15.00;99.90
67077;DHT22;53991;46.364;17.008;2022-08-03T03:31:25;14.90;99.90
67077;DHT22;53991;46.364;17.008;2022-08-03T03:34:28;14.90;99.90
67077;DHT22;53991;46.364;17.008;2022-08-03T03:37:31;14.80;99.90
67077;DHT22;53991;46.364;17.008;2022-08-03T03:40:37;14.70;99.90
67077;DHT22;53991;46.364;17.008;2022-08-03T03:43:39;14.60;99.90
67077;DHT22;53991;46.364;17.008;2022-08-03T03:46:41;14.60;99.90
67077;DHT22;53991;46.364;17.008;2022-08-03T03:49:43;14.70;99.90
67077;DHT22;53991;46.364;17.008;2022-08-03T03:52:45;14.70;99.90
67077;DHT22;53991;46.364;17.008;2022-08-03T03:55:47;14.60;99.90
67077;DHT22;53991;46.364;17.008;2022-08-03T03:59:03;14.60;99.90
67077;DHT22;53991;46.364;17.008;2022-08-03T04:02:06;14.60;99.90
67077;DHT22;53991;46.364;17.008;2022-08-03T04:05:09;14.60;99.90
67077;DHT22;53991;46.364;17.008;2022-08-03T04:08:16;14.60;99.90
67077;DHT22;53991;46.364;17.008;2022-08-03T04:11:30;14.70;99.90
67077;DHT22;53991;46.364;17.008;2022-08-03T04:14:35;14.70;99.90
67077;DHT22;53991;46.364;17.008;2022-08-03T04:17:39;14.60;99.90
67077;DHT22;53991;46.364;17.008;2022-08-03T04:20:46;14.50;99.90
67077;DHT22;53991;46.364;17.008;2022-08-03T04:23:50;14.60;99.90
67077;DHT22;53991;46.364;17.008;2022-08-03T04:26:55;14.70;99.90
67077;DHT22;53991;46.364;17.008;2022-08-03T04:29:59;14.70;99.90
67077;DHT22;53991;46.364;17.008;2022-08-03T04:33:03;14.80;99.90
67077;DHT22;53991;46.364;17.008;2022-08-03T04:36:07;14.90;99.90
67077;DHT22;53991;46.364;17.008;2022-08-03T04:39:13;15.00;99.90
67077;DHT22;53991;46.364;17.008;2022-08-03T04:42:19;15.00;99.90
67077;DHT22;53991;46.364;17.008;2022-08-03T04:45:24;15.10;99.90
67077;DHT22;53991;46.364;17.008;2022-08-03T04:48:26;15.10;99.90
67077;DHT22;53991;46.364;17.008;2022-08-03T04:51:29;15.10;99.90
67077;DHT22;53991;46.364;17.008;2022-08-03T04:54:38;15.10;99.90
67077;DHT22;53991;46.364;17.008;2022-08-03T04:57:40;15.20;99.90
67077;DHT22;53991;46.364;17.008;2022-08-03T05:00:42;15.30;99.90
67077;DHT22;53991;46.364;17.008;2022-08-03T05:03:45;15.50;99.90
67077;DHT22;53991;46.364;17.008;2022-08-03T05:06:46;16.40;99.90
67077;DHT22;53991;46.364;17.008;2022-08-03T05:09:56;18.50;99.90
67077;DHT22;53991;46.364;17.008;2022-08-03T05:13:04;20.60;99.90
67077;DHT22;53991;46.364;17.008;2022-08-03T05:16:06;21.90;99.90
67077;DHT22;53991;46.364;17.008;2022-08-03T05:19:07;22.00;99.90
67077;DHT22;53991;46.364;17.008;2022-08-03T05:22:09;21.70;99.90
67077;DHT22;53991;46.364;17.008;2022-08-03T05:25:11;21.80;99.90
67077;DHT22;53991;46.364;17.008;2022-08-03T05:28:20;21.80;99.90
67077;DHT22;53991;46.364;17.008;2022-08-03T05:31:22;21.10;99.90
67077;DHT22;53991;46.364;17.008;2022-08-03T05:34:24;20.40;99.90
67077;DHT22;53991;46.364;17.008;2022-08-03T05:37:28;20.00;99.90
67077;DHT22;53991;46.364;17.008;2022-08-03T05:40:31;19.80;99.90
67077;DHT22;53991;46.364;17.008;2022-08-03T05:43:32;20.40;99.90
67077;DHT22;53991;46.364;17.008;2022-08-03T05:46:37;20.60;99.90
67077;DHT22;53991;46.364;17.008;2022-08-03T05:49:39;20.30;99.90
67077;DHT22;53991;46.364;17.008;2022-08-03T05:52:41;20.80;99.90
67077;DHT22;53991;46.364;17.008;2022-08-03T05:55:43;22.00;99.90
67077;DHT22;53991;46.364;17.008;2022-08-03T05:58:46;24.10;99.90
67077;DHT22;53991;46.364;17.008;2022-08-03T06:01:48;25.90;99.90
67077;DHT22;53991;46.364;17.008;2022-08-03T06:04:50;26.90;99.10
67077;DHT22;53991;46.364;17.008;2022-08-03T06:07:52;27.70;96.90
67077;DHT22;53991;46.364;17.008;2022-08-03T06:10:54;28.30;94.90
67077;DHT22;53991;46.364;17.008;2022-08-03T06:13:56;29.20;92.50
67077;DHT22;53991;46.364;17.008;2022-08-03T06:16:58;29.10;91.40
67077;DHT22;53991;46.364;17.008;2022-08-03T06:19:59;29.80;89.20
67077;DHT22;53991;46.364;17.008;2022-08-03T06:23:01;30.30;85.10
67077;DHT22;53991;46.364;17.008;2022-08-03T06:26:03;29.90;85.90
67077;DHT22;53991;46.364;17.008;2022-08-03T06:29:05;30.90;83.10
67077;DHT22;53991;46.364;17.008;2022-08-03T06:32:10;31.00;81.90
67077;DHT22;53991;46.364;17.008;2022-08-03T06:35:12;30.60;78.00
67077;DHT22;53991;46.364;17.008;2022-08-03T06:38:14;29.30;83.00
67077;DHT22;53991;46.364;17.008;2022-08-03T06:41:16;29.70;81.20
67077;DHT22;53991;46.364;17.008;2022-08-03T06:44:18;30.70;78.20
67077;DHT22;53991;46.364;17.008;2022-08-03T06:47:20;31.10;76.50
67077;DHT22;53991;46.364;17.008;2022-08-03T06:50:22;30.90;75.30
67077;DHT22;53991;46.364;17.008;2022-08-03T06:53:27;30.80;75.20
67077;DHT22;53991;46.364;17.008;2022-08-03T06:56:28;31.10;75.60
67077;DHT22;53991;46.364;17.008;2022-08-03T06:59:30;32.40;71.30
67077;DHT22;53991;46.364;17.008;2022-08-03T07:02:53;32.00;69.40
67077;DHT22;53991;46.364;17.008;2022-08-03T07:05:59;31.40;70.70
67077;DHT22;53991;46.364;17.008;2022-08-03T07:09:01;32.00;70.30
67077;DHT22;53991;46.364;17.008;2022-08-03T07:12:03;32.00;71.10
67077;DHT22;53991;46.364;17.008;2022-08-03T07:15:06;33.20;67.80
67077;DHT22;53991;46.364;17.008;2022-08-03T07:18:21;33.40;67.50
67077;DHT22;53991;46.364;17.008;2022-08-03T07:21:30;33.70;63.00
67077;DHT22;53991;46.364;17.008;2022-08-03T07:24:32;33.80;64.40
67077;DHT22;53991;46.364;17.008;2022-08-03T07:27:34;33.70;66.40
67077;DHT22;53991;46.364;17.008;2022-08-03T07:30:36;33.80;64.10
67077;DHT22;53991;46.364;17.008;2022-08-03T07:33:38;34.00;65.30
67077;DHT22;53991;46.364;17.008;2022-08-03T07:36:40;35.40;62.10
67077;DHT22;53991;46.364;17.008;2022-08-03T07:39:41;35.50;60.60
67077;DHT22;53991;46.364;17.008;2022-08-03T07:42:43;35.00;58.60
67077;DHT22;53991;46.364;17.008;2022-08-03T07:45:45;34.90;58.60
67077;DHT22;53991;46.364;17.008;2022-08-03T07:48:47;34.60;58.90
67077;DHT22;53991;46.364;17.008;2022-08-03T07:51:49;34.90;56.90
67077;DHT22;53991;46.364;17.008;2022-08-03T07:54:51;34.60;57.50
67077;DHT22;53991;46.364;17.008;2022-08-03T07:57:59;35.10;55.30
67077;DHT22;53991;46.364;17.008;2022-08-03T08:01:02;35.40;54.80
67077;DHT22;53991;46.364;17.008;2022-08-03T08:04:04;34.90;53.40
67077;DHT22;53991;46.364;17.008;2022-08-03T08:07:06;35.30;55.50
67077;DHT22;53991;46.364;17.008;2022-08-03T08:10:08;35.60;53.80
67077;DHT22;53991;46.364;17.008;2022-08-03T08:13:11;36.20;54.30
67077;DHT22;53991;46.364;17.008;2022-08-03T08:16:12;36.20;54.90
67077;DHT22;53991;46.364;17.008;2022-08-03T08:19:14;36.40;51.00
67077;DHT22;53991;46.364;17.008;2022-08-03T08:22:16;37.00;49.60
67077;DHT22;53991;46.364;17.008;2022-08-03T08:25:24;38.20;48.30
67077;DHT22;53991;46.364;17.008;2022-08-03T08:28:26;38.50;45.70
67077;DHT22;53991;46.364;17.008;2022-08-03T08:31:33;38.50;44.60
67077;DHT22;53991;46.364;17.008;2022-08-03T08:34:35;38.30;42.60
67077;DHT22;53991;46.364;17.008;2022-08-03T08:37:37;37.80;47.50
67077;DHT22;53991;46.364;17.008;2022-08-03T08:40:40;38.00;42.50
67077;DHT22;53991;46.364;17.008;2022-08-03T08:43:42;38.20;44.10
67077;DHT22;53991;46.364;17.008;2022-08-03T08:46:44;37.00;44.50
67077;DHT22;53991;46.364;17.008;2022-08-03T08:49:47;37.70;44.90
67077;DHT22;53991;46.364;17.008;2022-08-03T08:53:11;38.20;42.20
67077;DHT22;53991;46.364;17.008;2022-08-03T08:56:24;39.10;39.80
67077;DHT22;53991;46.364;17.008;2022-08-03T08:59:26;38.70;39.00
67077;DHT22;53991;46.364;17.008;2022-08-03T09:02:48;38.50;42.60
67077;DHT22;53991;46.364;17.008;2022-08-03T09:05:51;38.20;40.70
67077;DHT22;53991;46.364;17.008;2022-08-03T09:08:57;38.00;40.70
67077;DHT22;53991;46.364;17.008;2022-08-03T09:11:59;38.30;38.30
67077;DHT22;53991;46.364;17.008;2022-08-03T09:15:24;38.40;38.20
67077;DHT22;53991;46.364;17.008;2022-08-03T09:18:30;38.30;39.30
67077;DHT22;53991;46.364;17.008;2022-08-03T09:21:33;39.00;40.20
67077;DHT22;53991;46.364;17.008;2022-08-03T09:24:36;39.30;34.90
67077;DHT22;53991;46.364;17.008;2022-08-03T09:27:43;39.30;34.80
67077;DHT22;53991;46.364;17.008;2022-08-03T09:30:57;38.70;37.60
67077;DHT22;53991;46.364;17.008;2022-08-03T09:34:05;39.00;37.70
67077;DHT22;53991;46.364;17.008;2022-08-03T09:37:15;38.50;37.10
67077;DHT22;53991;46.364;17.008;2022-08-03T09:40:33;38.70;39.60
67077;DHT22;53991;46.364;17.008;2022-08-03T09:43:45;38.80;38.10
67077;DHT22;53991;46.364;17.008;2022-08-03T09:46:48;39.40;38.50
67077;DHT22;53991;46.364;17.008;2022-08-03T09:49:58;39.10;37.70
67077;DHT22;53991;46.364;17.008;2022-08-03T09:53:01;39.00;36.40
67077;DHT22;53991;46.364;17.008;2022-08-03T09:56:03;36.00;37.20
67077;DHT22;53991;46.364;17.008;2022-08-03T09:59:27;35.30;40.30
67077;DHT22;53991;46.364;17.008;2022-08-03T10:02:29;36.50;40.30
67077;DHT22;53991;46.364;17.008;2022-08-03T10:05:31;36.80;37.60
67077;DHT22;53991;46.364;17.008;2022-08-03T10:08:33;37.50;39.50
67077;DHT22;53991;46.364;17.008;2022-08-03T10:11:36;37.60;37.10
67077;DHT22;53991;46.364;17.008;2022-08-03T10:14:42;37.70;37.00
67077;DHT22;53991;46.364;17.008;2022-08-03T10:17:44;37.20;38.30
67077;DHT22;53991;46.364;17.008;2022-08-03T10:20:50;36.20;39.40
67077;DHT22;53991;46.364;17.008;2022-08-03T10:23:54;36.40;40.00
67077;DHT22;53991;46.364;17.008;2022-08-03T10:27:05;36.70;39.80
67077;DHT22;53991;46.364;17.008;2022-08-03T10:30:09;36.30;38.90
67077;DHT22;53991;46.364;17.008;2022-08-03T10:33:21;36.20;39.80
67077;DHT22;53991;46.364;17.008;2022-08-03T10:36:44;36.50;38.70
67077;DHT22;53991;46.364;17.008;2022-08-03T10:39:48;36.60;39.80
67077;DHT22;53991;46.364;17.008;2022-08-03T10:42:54;37.00;40.80
67077;DHT22;53991;46.364;17.008;2022-08-03T10:45:57;37.00;37.40
67077;DHT22;53991;46.364;17.008;2022-08-03T10:49:00;36.60;38.70
67077;DHT22;53991;46.364;17.008;2022-08-03T10:52:04;36.80;38.40
67077;DHT22;53991;46.364;17.008;2022-08-03T10:55:41;36.90;39.50
67077;DHT22;53991;46.364;17.008;2022-08-03T10:58:47;37.00;38.80
67077;DHT22;53991;46.364;17.008;2022-08-03T11:01:58;37.20;38.70
67077;DHT22;53991;46.364;17.008;2022-08-03T11:05:24;37.00;38.10
67077;DHT22;53991;46.364;17.008;2022-08-03T11:08:31;37.40;36.90
67077;DHT22;53991;46.364;17.008;2022-08-03T11:11:34;37.30;38.30
67077;DHT22;53991;46.364;17.008;2022-08-03T11:14:47;37.00;36.40
67077;DHT22;53991;46.364;17.008;2022-08-03T11:18:07;36.40;38.50
67077;DHT22;53991;46.364;17.008;2022-08-03T11:21:12;35.70;38.10
67077;DHT22;53991;46.364;17.008;2022-08-03T11:27:37;35.40;40.60
67077;DHT22;53991;46.364;17.008;2022-08-03T11:30:40;35.10;41.90
67077;DHT22;53991;46.364;17.008;2022-08-03T11:34:08;35.30;42.00
67077;DHT22;53991;46.364;17.008;2022-08-03T11:37:23;36.20;38.10
67077;DHT22;53991;46.364;17.008;2022-08-03T11:40:53;36.50;38.00
67077;DHT22;53991;46.364;17.008;2022-08-03T11:43:55;35.70;37.80
67077;DHT22;53991;46.364;17.008;2022-08-03T11:46:58;35.80;38.30
67077;DHT22;53991;46.364;17.008;2022-08-03T11:50:00;35.60;40.00
67077;DHT22;53991;46.364;17.008;2022-08-03T11:53:02;36.20;39.40
67077;DHT22;53991;46.364;17.008;2022-08-03T11:56:06;36.70;36.50
67077;DHT22;53991;46.364;17.008;2022-08-03T11:59:14;36.10;38.10
67077;DHT22;53991;46.364;17.008;2022-08-03T12:02:22;36.50;40.70
67077;DHT22;53991;46.364;17.008;2022-08-03T12:08:53;35.10;40.80
67077;DHT22;53991;46.364;17.008;2022-08-03T12:11:54;35.10;38.70
67077;DHT22;53991;46.364;17.008;2022-08-03T12:15:02;35.80;38.20
67077;DHT22;53991;46.364;17.008;2022-08-03T12:18:13;35.90;37.60
67077;DHT22;53991;46.364;17.008;2022-08-03T12:21:16;35.20;36.80
67077;DHT22;53991;46.364;17.008;2022-08-03T12:24:17;33.30;39.50
67077;DHT22;53991;46.364;17.008;2022-08-03T12:27:24;34.20;39.00
67077;DHT22;53991;46.364;17.008;2022-08-03T12:30:26;35.00;40.30
67077;DHT22;53991;46.364;17.008;2022-08-03T12:33:28;35.80;39.70
67077;DHT22;53991;46.364;17.008;2022-08-03T12:36:33;36.70;39.00
67077;DHT22;53991;46.364;17.008;2022-08-03T12:39:35;37.20;38.00
67077;DHT22;53991;46.364;17.008;2022-08-03T12:42:57;37.40;36.80
67077;DHT22;53991;46.364;17.008;2022-08-03T12:46:17;36.80;36.30
67077;DHT22;53991;46.364;17.008;2022-08-03T12:49:19;36.40;35.80
67077;DHT22;53991;46.364;17.008;2022-08-03T12:52:22;36.00;36.20
67077;DHT22;53991;46.364;17.008;2022-08-03T12:55:24;36.30;39.40
67077;DHT22;53991;46.364;17.008;2022-08-03T12:58:34;36.00;37.60
67077;DHT22;53991;46.364;17.008;2022-08-03T13:01:36;36.40;40.40
67077;DHT22;53991;46.364;17.008;2022-08-03T13:04:55;37.00;39.70
67077;DHT22;53991;46.364;17.008;2022-08-03T13:11:25;36.60;37.60
67077;DHT22;53991;46.364;17.008;2022-08-03T13:14:49;36.60;37.50
67077;DHT22;53991;46.364;17.008;2022-08-03T13:17:51;36.50;37.50
67077;DHT22;53991;46.364;17.008;2022-08-03T13:20:53;36.30;38.50
67077;DHT22;53991;46.364;17.008;2022-08-03T13:23:55;34.90;38.50
67077;DHT22;53991;46.364;17.008;2022-08-03T13:26:57;34.40;38.50
67077;DHT22;53991;46.364;17.008;2022-08-03T13:30:00;35.30;40.20
67077;DHT22;53991;46.364;17.008;2022-08-03T13:33:01;35.70;37.90
67077;DHT22;53991;46.364;17.008;2022-08-03T13:36:03;35.80;37.60
67077;DHT22;53991;46.364;17.008;2022-08-03T13:39:06;35.70;40.70
67077;DHT22;53991;46.364;17.008;2022-08-03T13:42:14;35.40;37.40
67077;DHT22;53991;46.364;17.008;2022-08-03T13:45:16;34.80;40.10
67077;DHT22;53991;46.364;17.008;2022-08-03T13:48:18;35.20;38.20
67077;DHT22;53991;46.364;17.008;2022-08-03T13:51:40;35.20;41.30
67077;DHT22;53991;46.364;17.008;2022-08-03T13:54:42;35.30;39.60
67077;DHT22;53991;46.364;17.008;2022-08-03T13:57:47;36.00;40.10
67077;DHT22;53991;46.364;17.008;2022-08-03T14:01:07;36.80;37.80
67077;DHT22;53991;46.364;17.008;2022-08-03T14:04:09;37.20;37.70
67077;DHT22;53991;46.364;17.008;2022-08-03T14:07:22;36.50;36.30
67077;DHT22;53991;46.364;17.008;2022-08-03T14:10:24;36.20;36.70
67077;DHT22;53991;46.364;17.008;2022-08-03T14:13:26;36.40;39.00
67077;DHT22;53991;46.364;17.008;2022-08-03T14:16:28;36.90;40.30
67077;DHT22;53991;46.364;17.008;2022-08-03T14:19:30;35.70;36.00
67077;DHT22;53991;46.364;17.008;2022-08-03T14:22:32;34.50;39.70
67077;DHT22;53991;46.364;17.008;2022-08-03T14:25:34;34.70;40.00
67077;DHT22;53991;46.364;17.008;2022-08-03T14:31:55;35.30;38.20
67077;DHT22;53991;46.364;17.008;2022-08-03T14:35:13;36.20;38.20
67077;DHT22;53991;46.364;17.008;2022-08-03T14:38:15;36.60;40.00
67077;DHT22;53991;46.364;17.008;2022-08-03T14:41:18;36.80;37.90
67077;DHT22;53991;46.364;17.008;2022-08-03T14:44:20;36.20;39.50
67077;DHT22;53991;46.364;17.008;2022-08-03T14:47:22;35.80;39.60
67077;DHT22;53991;46.364;17.008;2022-08-03T14:50:25;35.10;40.00
67077;DHT22;53991;46.364;17.008;2022-08-03T14:53:41;34.90;38.50
67077;DHT22;53991;46.364;17.008;2022-08-03T14:56:43;35.30;39.20
67077;DHT22;53991;46.364;17.008;2022-08-03T14:59:45;35.30;38.50
67077;DHT22;53991;46.364;17.008;2022-08-03T15:02:57;35.40;37.40
67077;DHT22;53991;46.364;17.008;2022-08-03T15:06:00;35.30;38.00
67077;DHT22;53991;46.364;17.008;2022-08-03T15:09:02;35.80;38.70
67077;DHT22;53991;46.364;17.008;2022-08-03T15:12:24;35.90;38.50
67077;DHT22;53991;46.364;17.008;2022-08-03T15:15:26;36.00;39.30
67077;DHT22;53991;46.364;17.008;2022-08-03T15:18:28;36.20;38.20
67077;DHT22;53991;46.364;17.008;2022-08-03T15:21:30;35.70;39.50
67077;DHT22;53991;46.364;17.008;2022-08-03T15:24:49;36.00;37.80
67077;DHT22;53991;46.364;17.008;2022-08-03T15:27:52;36.10;36.60
67077;DHT22;53991;46.364;17.008;2022-08-03T15:31:05;35.80;36.70
67077;DHT22;53991;46.364;17.008;2022-08-03T15:34:08;35.50;38.50
67077;DHT22;53991;46.364;17.008;2022-08-03T15:37:10;35.20;37.30
67077;DHT22;53991;46.364;17.008;2022-08-03T15:40:17;35.10;39.20
67077;DHT22;53991;46.364;17.008;2022-08-03T15:43:20;35.00;39.40
67077;DHT22;53991;46.364;17.008;2022-08-03T15:46:22;34.40;38.50
67077;DHT22;53991;46.364;17.008;2022-08-03T15:49:30;33.60;39.60
67077;DHT22;53991;46.364;17.008;2022-08-03T15:52:34;33.20;39.80
67077;DHT22;53991;46.364;17.008;2022-08-03T15:55:36;33.50;38.80
67077;DHT22;53991;46.364;17.008;2022-08-03T15:58:38;33.30;41.10
67077;DHT22;53991;46.364;17.008;2022-08-03T16:02:00;33.70;39.70
67077;DHT22;53991;46.364;17.008;2022-08-03T16:05:03;34.00;40.10
67077;DHT22;53991;46.364;17.008;2022-08-03T16:08:05;33.90;39.70
67077;DHT22;53991;46.364;17.008;2022-08-03T16:11:14;33.50;39.90
67077;DHT22;53991;46.364;17.008;2022-08-03T16:14:17;33.30;40.90
67077;DHT22;53991;46.364;17.008;2022-08-03T16:17:37;32.60;41.30
67077;DHT22;53991;46.364;17.008;2022-08-03T16:20:39;32.60;42.70
67077;DHT22;53991;46.364;17.008;2022-08-03T16:23:42;32.70;43.50
67077;DHT22;53991;46.364;17.008;2022-08-03T16:26:48;32.60;42.20
67077;DHT22;53991;46.364;17.008;2022-08-03T16:29:49;32.30;42.80
67077;DHT22;53991;46.364;17.008;2022-08-03T16:32:51;32.20;42.50
67077;DHT22;53991;46.364;17.008;2022-08-03T16:35:53;32.40;44.40
67077;DHT22;53991;46.364;17.008;2022-08-03T16:38:55;32.50;43.90
67077;DHT22;53991;46.364;17.008;2022-08-03T16:41:57;32.50;45.40
67077;DHT22;53991;46.364;17.008;2022-08-03T16:45:04;32.20;44.70
67077;DHT22;53991;46.364;17.008;2022-08-03T16:48:06;32.00;44.10
67077;DHT22;53991;46.364;17.008;2022-08-03T16:51:08;31.80;44.80
67077;DHT22;53991;46.364;17.008;2022-08-03T16:54:10;31.70;45.10
67077;DHT22;53991;46.364;17.008;2022-08-03T16:57:14;31.40;46.00
67077;DHT22;53991;46.364;17.008;2022-08-03T17:00:16;31.40;45.60
67077;DHT22;53991;46.364;17.008;2022-08-03T17:03:35;31.20;45.20
67077;DHT22;53991;46.364;17.008;2022-08-03T17:06:58;31.00;45.00
67077;DHT22;53991;46.364;17.008;2022-08-03T17:10:00;31.00;47.50
67077;DHT22;53991;46.364;17.008;2022-08-03T17:13:02;30.90;48.90
67077;DHT22;53991;46.364;17.008;2022-08-03T17:16:08;30.80;49.00
67077;DHT22;53991;46.364;17.008;2022-08-03T17:19:11;30.70;49.10
67077;DHT22;53991;46.364;17.008;2022-08-03T17:22:19;30.60;49.20
67077;DHT22;53991;46.364;17.008;2022-08-03T17:25:23;30.40;52.30
67077;DHT22;53991;46.364;17.008;2022-08-03T17:28:48;30.20;54.40
67077;DHT22;53991;46.364;17.008;2022-08-03T17:31:59;29.80;56.60
67077;DHT22;53991;46.364;17.008;2022-08-03T17:35:01;29.50;57.30
67077;DHT22;53991;46.364;17.008;2022-08-03T17:38:06;29.10;59.20
67077;DHT22;53991;46.364;17.008;2022-08-03T17:41:15;28.80;60.80
67077;DHT22;53991;46.364;17.008;2022-08-03T17:44:22;28.50;62.50
67077;DHT22;53991;46.364;17.008;2022-08-03T17:47:34;28.20;61.70
67077;DHT22;53991;46.364;17.008;2022-08-03T17:50:53;27.80;62.20
67077;DHT22;53991;46.364;17.008;2022-08-03T17:57:25;27.10;65.00
67077;DHT22;53991;46.364;17.008;2022-08-03T18:00:29;26.70;68.30
67077;DHT22;53991;46.364;17.008;2022-08-03T18:03:43;26.30;70.20
67077;DHT22;53991;46.364;17.008;2022-08-03T18:07:03;26.10;71.30
67077;DHT22;53991;46.364;17.008;2022-08-03T18:10:20;25.80;73.00
67077;DHT22;53991;46.364;17.008;2022-08-03T18:13:23;25.40;74.50
67077;DHT22;53991;46.364;17.008;2022-08-03T18:16:37;24.90;77.00
67077;DHT22;53991;46.364;17.008;2022-08-03T18:19:39;24.70;78.70
67077;DHT22;53991;46.364;17.008;2022-08-03T18:26:09;24.20;81.50
67077;DHT22;53991;46.364;17.008;2022-08-03T18:29:13;23.90;85.40
67077;DHT22;53991;46.364;17.008;2022-08-03T18:32:17;23.70;88.10
67077;DHT22;53991;46.364;17.008;2022-08-03T18:35:20;23.50;88.50
67077;DHT22;53991;46.364;17.008;2022-08-03T18:38:27;23.40;90.00
67077;DHT22;53991;46.364;17.008;2022-08-03T18:41:31;23.10;91.20
67077;DHT22;53991;46.364;17.008;2022-08-03T18:44:36;23.00;92.50
67077;DHT22;53991;46.364;17.008;2022-08-03T18:51:16;22.50;95.10
67077;DHT22;53991;46.364;17.008;2022-08-03T18:55:06;22.30;95.40
67077;DHT22;53991;46.364;17.008;2022-08-03T18:58:50;22.10;97.40
67077;DHT22;53991;46.364;17.008;2022-08-03T19:02:06;22.00;98.70
67077;DHT22;53991;46.364;17.008;2022-08-03T19:05:10;21.80;99.30
67077;DHT22;53991;46.364;17.008;2022-08-03T19:08:18;21.60;99.90
67077;DHT22;53991;46.364;17.008;2022-08-03T19:11:48;21.50;99.90
67077;DHT22;53991;46.364;17.008;2022-08-03T19:15:12;21.10;99.90
67077;DHT22;53991;46.364;17.008;2022-08-03T19:18:17;21.00;99.90
67077;DHT22;53991;46.364;17.008;2022-08-03T19:21:22;20.80;99.90
67077;DHT22;53991;46.364;17.008;2022-08-03T19:24:25;20.50;99.90
67077;DHT22;53991;46.364;17.008;2022-08-03T19:27:28;20.50;99.90
67077;DHT22;53991;46.364;17.008;2022-08-03T19:30:37;20.50;99.90
67077;DHT22;53991;46.364;17.008;2022-08-03T19:33:41;20.40;99.90
67077;DHT22;53991;46.364;17.008;2022-08-03T19:36:58;20.30;99.90
67077;DHT22;53991;46.364;17.008;2022-08-03T19:40:01;20.20;99.90
67077;DHT22;53991;46.364;17.008;2022-08-03T19:43:15;20.00;99.90
67077;DHT22;53991;46.364;17.008;2022-08-03T19:46:19;19.90;99.90
67077;DHT22;53991;46.364;17.008;2022-08-03T19:49:25;19.70;99.90